NWS Home NWS Lubbock West Texas Mesonet South Sector Latest Conditions as of 0944 AM, Sat Aug 19, 2017

Latest   N   C   S   Daily Sum   3hrΔ   24hrΔ   Soil Data 
Site Map   24hr Precip   72hr Precip   Google Plot


Station Time of Last Temp Dew Pt. RH Wind Direction Wind Speed Wind Gust Max Wind Max Temp Min Temp Max RH Min RH Altimeter 1HR Rain Today's Rain Solar Rad
Andrews 2E  09:40 AM 77 63 65% S1013 14 mph 156° @ 0935 AM 77 67 80 54 30.12" 0 0.00 176
Aspermont 3NE  09:40 AM 86 67 54% SW1013 13 mph 222° @ 0940 AM 86 72 90 54 30.04" 0 0.00 463
Big Bend NP - Persimmon Gap  09:40 AM 79 64 60% S56 11 mph 234° @ 0305 AM 79 69 80 59 30.11" 0 0.00 441
Big Lake 1WNW  09:40 AM 79 71 77% S1113 16 mph 180° @ 0917 AM 79 71 91 77 30.11" 0 0.00 379
Brownfield 2S  09:40 AM 80 62 55% S1418 18 mph 181° @ 0940 AM 80 66 84 55 30.12" 0 0.00 434
Clyde 2WNW  09:40 AM 84 72 67% SW1214 17 mph 211° @ 0905 AM 84 73 88 67 30.08" 0 0.00 470
Colorado City 5NW  09:40 AM 82 71 69% S1011 15 mph 181° @ 0924 AM 82 70 93 68 30.09" 0 0.00 472
Coyanosa 2N  09:40 AM 82 67 61% S811 13 mph 105° @ 0642 AM 82 73 82 60 30.07" 0 0.00 432
Dell City  09:40 AM 74 63 69% SW45 12 mph 213° @ 0154 AM 77 68 87 59 30.16" 0 0.00 135
Denver City 7WNW  09:40 AM 77 61 59% SE1215 15 mph 142° @ 0935 AM 77 63 90 59 30.13" 0 0.00 435
Fluvanna 3WNW  09:40 AM 80 66 63% S1015 15 mph 194° @ 0940 AM 80 69 88 63 30.10" 0 0.00 432
Fort Chadbourne  09:40 AM 81 72 74% S67 12 mph 189° @ 0933 AM 81 72 96 72 30.08" 0 0.00 468
Fort Lancaster  09:40 AM 80 72 77% SE68 13 mph 140° @ 0934 AM 80 72 95 72 30.08" 0 0.00 440
Fort McKavett  09:40 AM 81 70 68% SW910 16 mph 149° @ 0216 AM 81 72 90 65 30.10" 0 0.00 454
Gail 2ESE  09:40 AM 81 65 62% S811 11 mph 188° @ 0940 AM 81 66 92 61 30.08" 0 0.00 393
Graham 5SSW  09:40 AM 82 63 53% S1216 16 mph 183° @ 0940 AM 82 69 75 53 30.10" 0 0.00 403
Guadalupe Mtns Natl Park  09:40 AM 74 53 49% W1113 17 mph 239° @ 0938 AM 74 66 70 48 30.26" 0 0.00 427
Haskell 1NW  09:40 AM 84 68 63% SW1214 17 mph 209° @ 0935 AM 84 73 85 63 30.03" 0 0.00 419
Jayton 1SSE  09:40 AM 84 67 59% SW712 13 mph 226° @ 0920 AM 84 71 85 59 30.05" 0 0.00 442
Junction 1SSW  09:40 AM 83 70 65% SW57 18 mph 155° @ 0111 AM 85 70 92 53 30.08" 0 0.00 389
Lake Alan Henry 1NW  09:40 AM 83 66 58% SW69 9 mph 225° @ 0937 AM 83 70 84 58 30.07" 0 0.00 461
Lamesa 2SE  09:40 AM 80 67 66% S1418 18 mph 184° @ 0940 AM 80 67 90 66 30.12" 0 0.00 396
Lomax 1SSE  09:40 AM 80 69 70% S1214 17 mph 188° @ 0911 AM 80 69 96 70 30.09" 0 0.00 478
McCamey 1SSW  09:40 AM 78 69 74% SE1316 17 mph 152° @ 0935 AM 78 73 86 74 30.09" 0 0.00 409
Menard 2NW   09:40 AM 80 70 72% SW911 16 mph 176° @ 0251 AM 80 71 94 68 30.09" 0 0.00 430
Mertzon 3NNE  09:40 AM 81 72 75% S710 13 mph 203° @ 0900 AM 81 70 96 75 30.09" 0 0.00 420
New Home  09:40 AM 78 64 62% S12 8 mph 210° @ 0616 AM 78 65 90 60 30.14" 0 0.00 475
O'Donnell 1N  09:40 AM 80 61 54% S912 12 mph 168° @ 0940 AM 80 66 84 54 30.11" 0 0.00 351
Plains 3N  09:40 AM 78 62 60% SE1115 15 mph 156° @ 0930 AM 78 66 88 60 30.14" 0 0.00 344
Post 1NE  09:40 AM 83 64 54% S47 9 mph 255° @ 0610 AM 83 69 80 53 30.09" 0 0.00 446
San Angelo 7NW  09:40 AM 82 69 68% S1116 16 mph 190° @ 0940 AM 82 74 87 68 30.07" 0 0.00 454
Seagraves 1SW  09:40 AM 78 64 63% S1215 16 mph 176° @ 0935 AM 78 63 93 63 30.12" 0 0.00 376
Seminole 2NNE  09:40 AM 78 62 60% SE1214 15 mph 158° @ 0935 AM 78 65 83 58 30.12" 0 0.00 423
Sierra Blanca 1SSE  09:40 AM 70 63 78% E24 12 mph 196° @ 0115 AM 71 66 85 69 30.21" 0 0.00 167
Snyder 3E  09:40 AM 82 69 69% S1216 16 mph 196° @ 0940 AM 82 71 93 69 30.09" 0 0.00 372
Snyder 3SSW  09:40 AM 82 69 66% SW1417 17 mph 207° @ 0940 AM 82 71 89 66 30.09" 0 0.00 469
St. Lawrence 5SW  09:40 AM 78 69 76% S1418 18 mph 188° @ 0935 AM 78 70 89 76 30.10" 0 0.00 556
Stamford 5ESE  09:40 AM 86 71 61% SW1114 17 mph 208° @ 0929 AM 86 73 89 61 30.04" 0 0.00 482
Sterling City 4WSW  09:40 AM 80 71 74% S910 16 mph 180° @ 0913 AM 80 69 96 73 30.09" 0 0.00 416
Sundown 8WSW  09:40 AM 79 62 58% S1116 16 mph 164° @ 0935 AM 79 63 91 58 30.14" 0 0.00 355
Sweetwater 11SW   09:40 AM 80 72 77% S1114 20 mph 196° @ 0922 AM 80 70 92 73 30.10" 0 0.00 449
Tahoka 3NNE  09:40 AM 81 63 56% S79 10 mph 174° @ 0927 AM 81 66 86 54 30.12" 0 0.00 450
Tarzan 2WNW  09:40 AM 78 66 67% S1215 16 mph 176° @ 0928 AM 78 69 90 67 30.11" 0 0.00 249
Tatum NM 2SW  09:40 AM 77 63 63% S1114 15 mph 161° @ 0925 AM 77 61 91 63 30.16" 0 0.00 388
Throckmorton 1SW  09:40 AM 85 72 65% SW711 13 mph 225° @ 0938 AM 85 73 93 64 30.02" 0 0.00 483
Wall 2E  09:40 AM 81 72 75% SW1011 15 mph 208° @ 0158 AM 81 72 92 65 30.08" 0 0.00 470
Weinert 2NNE  09:40 AM 84 71 64% SW1216 17 mph 218° @ 0939 AM 84 73 90 64 30.03" 0 0.00 472
Welch  09:40 AM 79 67 66% S810 13 mph 166° @ 0936 AM 79 65 94 64 30.13" 0 0.00 462

West Texas Mesonet Home   Site Map/Menu  NWS Lubbock Soil Data  Daily Summary Page  24hr Precip  72hr Precip  Google Plot